Terminal Aerodrome Forecast
Issued by NWS

Home | Current Version | Previous Version | Graphics & Text | Print | Product List | Glossary On
Versions: 1 2 3 4 5 6 7 8 9 10 11 12 13 14 15 16
000
FTUS43 KMPX 021720
TAFAXN
TAF
KAXN 021720Z 0218/0318 20012G18KT P6SM SCT250
     FM030100 18006KT P6SM BKN150
     FM030700 16006KT P6SM VCSH SCT040 BKN090 PROB30 0308/0312 5SM
      SHRA BKN050
     FM031400 29008KT P6SM VCSH SCT020 BKN050=

USA.gov is the U.S. government's official web portal to all federal, state and local government web resources and services.